sensor_id;sensor_type;location;lat;lon;timestamp;pressure;altitude;pressure_sealevel;temperature;humidity
13974;BME280;7060;43.770;4.008;2023-10-31T00:00:05;100245.81;;;11.31;73.77
13974;BME280;7060;43.770;4.008;2023-10-31T00:02:40;100243.81;;;11.33;73.66
13974;BME280;7060;43.770;4.008;2023-10-31T00:05:09;100233.78;;;11.27;73.22
13974;BME280;7060;43.770;4.008;2023-10-31T00:07:38;100225.41;;;11.22;73.61
13974;BME280;7060;43.770;4.008;2023-10-31T00:10:08;100233.41;;;11.14;73.29
13974;BME280;7060;43.770;4.008;2023-10-31T00:12:37;100227.00;;;11.07;73.57
13974;BME280;7060;43.770;4.008;2023-10-31T00:15:07;100235.84;;;10.99;73.40
13974;BME280;7060;43.770;4.008;2023-10-31T00:17:36;100234.19;;;10.98;73.96
13974;BME280;7060;43.770;4.008;2023-10-31T00:20:07;100228.84;;;10.98;73.52
13974;BME280;7060;43.770;4.008;2023-10-31T00:22:36;100230.16;;;10.94;73.65
13974;BME280;7060;43.770;4.008;2023-10-31T00:25:05;100238.44;;;10.83;73.69
13974;BME280;7060;43.770;4.008;2023-10-31T00:27:35;100231.34;;;10.74;73.51
13974;BME280;7060;43.770;4.008;2023-10-31T00:30:05;100256.88;;;10.68;73.62
13974;BME280;7060;43.770;4.008;2023-10-31T00:32:34;100258.19;;;10.64;73.47
13974;BME280;7060;43.770;4.008;2023-10-31T00:35:03;100265.38;;;10.64;73.52
13974;BME280;7060;43.770;4.008;2023-10-31T00:37:34;100257.81;;;10.59;73.61
13974;BME280;7060;43.770;4.008;2023-10-31T00:40:03;100264.84;;;10.60;73.85
13974;BME280;7060;43.770;4.008;2023-10-31T00:42:33;100267.53;;;10.60;73.92
13974;BME280;7060;43.770;4.008;2023-10-31T00:45:02;100270.03;;;10.62;74.01
13974;BME280;7060;43.770;4.008;2023-10-31T00:47:32;100283.63;;;10.68;73.95
13974;BME280;7060;43.770;4.008;2023-10-31T00:50:04;100292.31;;;10.70;73.93
13974;BME280;7060;43.770;4.008;2023-10-31T00:52:52;100295.69;;;10.72;73.96
13974;BME280;7060;43.770;4.008;2023-10-31T00:55:30;100309.22;;;10.71;74.06
13974;BME280;7060;43.770;4.008;2023-10-31T00:57:59;100306.69;;;10.69;73.91
13974;BME280;7060;43.770;4.008;2023-10-31T01:00:28;100301.50;;;10.68;73.79
13974;BME280;7060;43.770;4.008;2023-10-31T01:03:01;100301.81;;;10.65;74.15
13974;BME280;7060;43.770;4.008;2023-10-31T01:05:30;100296.78;;;10.62;74.06
13974;BME280;7060;43.770;4.008;2023-10-31T01:08:03;100273.03;;;10.59;73.83
13974;BME280;7060;43.770;4.008;2023-10-31T01:10:34;100267.47;;;10.52;74.29
13974;BME280;7060;43.770;4.008;2023-10-31T01:13:04;100290.22;;;10.56;74.39
13974;BME280;7060;43.770;4.008;2023-10-31T01:15:34;100298.59;;;10.61;74.58
13974;BME280;7060;43.770;4.008;2023-10-31T01:18:06;100307.84;;;10.67;74.22
13974;BME280;7060;43.770;4.008;2023-10-31T01:20:35;100318.31;;;10.60;74.04
13974;BME280;7060;43.770;4.008;2023-10-31T01:23:07;100321.44;;;10.56;74.17
13974;BME280;7060;43.770;4.008;2023-10-31T01:25:39;100328.94;;;10.52;74.38
13974;BME280;7060;43.770;4.008;2023-10-31T01:28:09;100316.72;;;10.49;74.23
13974;BME280;7060;43.770;4.008;2023-10-31T01:30:39;100312.53;;;10.47;74.54
13974;BME280;7060;43.770;4.008;2023-10-31T01:33:08;100319.56;;;10.48;74.51
13974;BME280;7060;43.770;4.008;2023-10-31T01:35:45;100313.88;;;10.51;74.89
13974;BME280;7060;43.770;4.008;2023-10-31T01:38:16;100313.56;;;10.54;74.68
13974;BME280;7060;43.770;4.008;2023-10-31T01:40:50;100319.91;;;10.53;74.72
13974;BME280;7060;43.770;4.008;2023-10-31T01:43:30;100322.28;;;10.56;74.37
13974;BME280;7060;43.770;4.008;2023-10-31T01:45:58;100311.06;;;10.52;74.50
13974;BME280;7060;43.770;4.008;2023-10-31T01:48:30;100317.66;;;10.40;74.48
13974;BME280;7060;43.770;4.008;2023-10-31T01:51:05;100324.16;;;10.38;74.47
13974;BME280;7060;43.770;4.008;2023-10-31T01:53:37;100339.50;;;10.36;74.50
13974;BME280;7060;43.770;4.008;2023-10-31T01:56:08;100338.28;;;10.30;74.31
13974;BME280;7060;43.770;4.008;2023-10-31T01:58:38;100320.59;;;10.11;74.43
13974;BME280;7060;43.770;4.008;2023-10-31T02:01:07;100346.38;;;10.21;74.46
13974;BME280;7060;43.770;4.008;2023-10-31T02:03:40;100345.00;;;10.16;74.41
13974;BME280;7060;43.770;4.008;2023-10-31T02:06:10;100349.66;;;10.14;74.60
13974;BME280;7060;43.770;4.008;2023-10-31T02:08:41;100357.00;;;10.12;74.31
13974;BME280;7060;43.770;4.008;2023-10-31T02:11:12;100347.28;;;10.11;74.72
13974;BME280;7060;43.770;4.008;2023-10-31T02:13:42;100351.09;;;10.09;74.27
13974;BME280;7060;43.770;4.008;2023-10-31T02:16:11;100363.09;;;10.05;74.80
13974;BME280;7060;43.770;4.008;2023-10-31T02:18:43;100365.59;;;10.06;74.50
13974;BME280;7060;43.770;4.008;2023-10-31T02:21:13;100370.84;;;9.98;74.87
13974;BME280;7060;43.770;4.008;2023-10-31T02:23:56;100368.88;;;10.00;74.56
13974;BME280;7060;43.770;4.008;2023-10-31T02:26:28;100382.91;;;10.02;74.72
13974;BME280;7060;43.770;4.008;2023-10-31T02:28:58;100373.66;;;9.97;74.70
13974;BME280;7060;43.770;4.008;2023-10-31T02:31:28;100378.50;;;9.93;74.59
13974;BME280;7060;43.770;4.008;2023-10-31T02:33:56;100387.78;;;9.89;74.60
13974;BME280;7060;43.770;4.008;2023-10-31T02:36:25;100400.75;;;9.84;74.65
13974;BME280;7060;43.770;4.008;2023-10-31T02:38:57;100398.78;;;9.86;74.66
13974;BME280;7060;43.770;4.008;2023-10-31T02:41:25;100394.72;;;9.82;74.64
13974;BME280;7060;43.770;4.008;2023-10-31T02:43:54;100395.31;;;9.76;74.79
13974;BME280;7060;43.770;4.008;2023-10-31T02:46:25;100393.91;;;9.72;74.77
13974;BME280;7060;43.770;4.008;2023-10-31T02:48:54;100385.97;;;9.62;74.91
13974;BME280;7060;43.770;4.008;2023-10-31T02:51:23;100403.19;;;9.68;74.54
13974;BME280;7060;43.770;4.008;2023-10-31T02:53:51;100393.69;;;9.65;74.77
13974;BME280;7060;43.770;4.008;2023-10-31T02:56:22;100392.00;;;9.64;75.09
13974;BME280;7060;43.770;4.008;2023-10-31T02:58:52;100402.53;;;9.66;74.79
13974;BME280;7060;43.770;4.008;2023-10-31T03:01:21;100414.56;;;9.70;75.25
13974;BME280;7060;43.770;4.008;2023-10-31T03:03:50;100411.63;;;9.73;75.08
13974;BME280;7060;43.770;4.008;2023-10-31T03:06:19;100426.78;;;9.72;74.75
13974;BME280;7060;43.770;4.008;2023-10-31T03:08:48;100419.41;;;9.66;75.09
13974;BME280;7060;43.770;4.008;2023-10-31T03:11:26;100419.22;;;9.68;75.08
13974;BME280;7060;43.770;4.008;2023-10-31T03:13:56;100424.56;;;9.68;74.93
13974;BME280;7060;43.770;4.008;2023-10-31T03:16:25;100428.38;;;9.65;74.52
13974;BME280;7060;43.770;4.008;2023-10-31T03:18:54;100432.06;;;9.55;74.39
13974;BME280;7060;43.770;4.008;2023-10-31T03:21:23;100424.66;;;9.48;74.55
13974;BME280;7060;43.770;4.008;2023-10-31T03:23:53;100419.59;;;9.45;74.93
13974;BME280;7060;43.770;4.008;2023-10-31T03:26:23;100422.28;;;9.45;75.25
13974;BME280;7060;43.770;4.008;2023-10-31T03:28:53;100432.94;;;9.45;74.88
13974;BME280;7060;43.770;4.008;2023-10-31T03:31:25;100441.09;;;9.44;74.80
13974;BME280;7060;43.770;4.008;2023-10-31T03:33:54;100440.53;;;9.40;74.93
13974;BME280;7060;43.770;4.008;2023-10-31T03:36:22;100443.53;;;9.37;75.13
13974;BME280;7060;43.770;4.008;2023-10-31T03:38:51;100449.69;;;9.38;75.38
13974;BME280;7060;43.770;4.008;2023-10-31T03:41:20;100450.38;;;9.40;75.35
13974;BME280;7060;43.770;4.008;2023-10-31T03:43:50;100445.88;;;9.40;75.43
13974;BME280;7060;43.770;4.008;2023-10-31T03:46:20;100440.25;;;9.43;75.30
13974;BME280;7060;43.770;4.008;2023-10-31T03:48:49;100433.84;;;9.36;75.30
13974;BME280;7060;43.770;4.008;2023-10-31T03:51:18;100444.03;;;9.41;75.52
13974;BME280;7060;43.770;4.008;2023-10-31T03:53:47;100444.59;;;9.44;75.65
13974;BME280;7060;43.770;4.008;2023-10-31T03:56:16;100439.13;;;9.46;75.88
13974;BME280;7060;43.770;4.008;2023-10-31T03:58:45;100446.28;;;9.45;75.79
13974;BME280;7060;43.770;4.008;2023-10-31T04:01:14;100438.97;;;9.47;75.83
13974;BME280;7060;43.770;4.008;2023-10-31T04:03:45;100440.50;;;9.50;75.74
13974;BME280;7060;43.770;4.008;2023-10-31T04:06:16;100441.06;;;9.54;75.86
13974;BME280;7060;43.770;4.008;2023-10-31T04:08:44;100442.47;;;9.58;75.63
13974;BME280;7060;43.770;4.008;2023-10-31T04:11:14;100447.09;;;9.56;75.25
13974;BME280;7060;43.770;4.008;2023-10-31T04:13:44;100454.84;;;9.49;75.49
13974;BME280;7060;43.770;4.008;2023-10-31T04:16:13;100459.34;;;9.48;75.85
13974;BME280;7060;43.770;4.008;2023-10-31T04:18:42;100453.28;;;9.56;76.29
13974;BME280;7060;43.770;4.008;2023-10-31T04:21:12;100459.13;;;9.69;76.23
13974;BME280;7060;43.770;4.008;2023-10-31T04:23:41;100462.75;;;9.78;76.22
13974;BME280;7060;43.770;4.008;2023-10-31T04:26:10;100481.25;;;9.89;76.20
13974;BME280;7060;43.770;4.008;2023-10-31T04:28:39;100462.84;;;9.86;76.48
13974;BME280;7060;43.770;4.008;2023-10-31T04:31:08;100491.69;;;10.10;76.21
13974;BME280;7060;43.770;4.008;2023-10-31T04:33:36;100487.28;;;10.18;76.12
13974;BME280;7060;43.770;4.008;2023-10-31T04:36:06;100482.84;;;10.27;76.11
13974;BME280;7060;43.770;4.008;2023-10-31T04:38:38;100485.47;;;10.37;75.78
13974;BME280;7060;43.770;4.008;2023-10-31T04:41:08;100459.34;;;10.31;75.86
13974;BME280;7060;43.770;4.008;2023-10-31T04:43:37;100493.13;;;10.49;75.46
13974;BME280;7060;43.770;4.008;2023-10-31T04:46:09;100499.69;;;10.55;75.37
13974;BME280;7060;43.770;4.008;2023-10-31T04:48:38;100508.09;;;10.60;75.30
13974;BME280;7060;43.770;4.008;2023-10-31T04:51:06;100509.34;;;10.66;75.07
13974;BME280;7060;43.770;4.008;2023-10-31T04:53:35;100505.38;;;10.70;74.71
13974;BME280;7060;43.770;4.008;2023-10-31T04:56:12;100511.94;;;10.75;74.25
13974;BME280;7060;43.770;4.008;2023-10-31T04:58:41;100514.03;;;10.81;74.33
13974;BME280;7060;43.770;4.008;2023-10-31T05:01:10;100506.09;;;10.90;73.34
13974;BME280;7060;43.770;4.008;2023-10-31T05:03:39;100505.47;;;10.96;73.10
13974;BME280;7060;43.770;4.008;2023-10-31T05:06:08;100504.03;;;11.01;72.89
13974;BME280;7060;43.770;4.008;2023-10-31T05:08:37;100510.88;;;11.04;72.79
13974;BME280;7060;43.770;4.008;2023-10-31T05:11:08;100510.28;;;11.10;72.89
13974;BME280;7060;43.770;4.008;2023-10-31T05:13:38;100519.81;;;11.12;72.40
13974;BME280;7060;43.770;4.008;2023-10-31T05:16:07;100516.63;;;11.09;72.66
13974;BME280;7060;43.770;4.008;2023-10-31T05:18:36;100519.75;;;11.04;72.34
13974;BME280;7060;43.770;4.008;2023-10-31T05:21:05;100524.09;;;11.05;72.16
13974;BME280;7060;43.770;4.008;2023-10-31T05:23:35;100527.47;;;11.07;72.09
13974;BME280;7060;43.770;4.008;2023-10-31T05:26:05;100539.53;;;11.11;71.35
13974;BME280;7060;43.770;4.008;2023-10-31T05:28:35;100527.41;;;11.17;71.54
13974;BME280;7060;43.770;4.008;2023-10-31T05:31:04;100532.28;;;11.22;71.14
13974;BME280;7060;43.770;4.008;2023-10-31T05:33:34;100546.03;;;11.27;70.66
13974;BME280;7060;43.770;4.008;2023-10-31T05:36:04;100542.22;;;11.29;70.64
13974;BME280;7060;43.770;4.008;2023-10-31T05:38:33;100537.22;;;11.34;70.14
13974;BME280;7060;43.770;4.008;2023-10-31T05:41:02;100546.47;;;11.40;70.37
13974;BME280;7060;43.770;4.008;2023-10-31T05:43:31;100545.31;;;11.42;69.73
13974;BME280;7060;43.770;4.008;2023-10-31T05:46:02;100550.22;;;11.47;69.76
13974;BME280;7060;43.770;4.008;2023-10-31T05:48:31;100558.25;;;11.47;70.00
13974;BME280;7060;43.770;4.008;2023-10-31T05:51:00;100551.91;;;11.48;69.37
13974;BME280;7060;43.770;4.008;2023-10-31T05:53:30;100553.41;;;11.50;69.64
13974;BME280;7060;43.770;4.008;2023-10-31T05:56:00;100552.59;;;11.50;69.72
13974;BME280;7060;43.770;4.008;2023-10-31T05:58:29;100556.25;;;11.49;69.72
13974;BME280;7060;43.770;4.008;2023-10-31T06:00:58;100566.13;;;11.48;69.63
13974;BME280;7060;43.770;4.008;2023-10-31T06:03:28;100568.94;;;11.47;69.90
13974;BME280;7060;43.770;4.008;2023-10-31T06:05:57;100577.13;;;11.45;69.61
13974;BME280;7060;43.770;4.008;2023-10-31T06:08:26;100573.38;;;11.38;69.78
13974;BME280;7060;43.770;4.008;2023-10-31T06:10:56;100573.69;;;11.35;69.73
13974;BME280;7060;43.770;4.008;2023-10-31T06:13:25;100580.28;;;11.41;69.60
13974;BME280;7060;43.770;4.008;2023-10-31T06:15:55;100588.16;;;11.42;69.26
13974;BME280;7060;43.770;4.008;2023-10-31T06:18:29;100587.16;;;11.43;69.37
13974;BME280;7060;43.770;4.008;2023-10-31T06:20:58;100584.63;;;11.42;69.24
13974;BME280;7060;43.770;4.008;2023-10-31T06:23:27;100588.16;;;11.42;69.37
13974;BME280;7060;43.770;4.008;2023-10-31T06:25:58;100594.50;;;11.41;69.46
13974;BME280;7060;43.770;4.008;2023-10-31T06:28:27;100594.50;;;11.41;69.63
13974;BME280;7060;43.770;4.008;2023-10-31T06:30:56;100594.50;;;11.41;69.69
13974;BME280;7060;43.770;4.008;2023-10-31T06:33:26;100602.84;;;11.38;69.72
13974;BME280;7060;43.770;4.008;2023-10-31T06:35:56;100612.53;;;11.39;70.07
13974;BME280;7060;43.770;4.008;2023-10-31T06:38:26;100601.16;;;11.37;70.09
13974;BME280;7060;43.770;4.008;2023-10-31T06:40:55;100603.81;;;11.37;70.31
13974;BME280;7060;43.770;4.008;2023-10-31T06:43:25;100598.16;;;11.40;70.63
13974;BME280;7060;43.770;4.008;2023-10-31T06:45:58;100603.53;;;11.40;70.35
13974;BME280;7060;43.770;4.008;2023-10-31T06:48:28;100610.56;;;11.41;70.35
13974;BME280;7060;43.770;4.008;2023-10-31T06:50:59;100611.25;;;11.43;70.30
13974;BME280;7060;43.770;4.008;2023-10-31T06:53:28;100611.09;;;11.45;70.29
13974;BME280;7060;43.770;4.008;2023-10-31T06:55:58;100620.34;;;11.50;70.41
13974;BME280;7060;43.770;4.008;2023-10-31T06:58:27;100622.88;;;11.52;70.48
13974;BME280;7060;43.770;4.008;2023-10-31T07:00:56;100629.47;;;11.58;70.24
13974;BME280;7060;43.770;4.008;2023-10-31T07:03:25;100630.66;;;11.63;69.73
13974;BME280;7060;43.770;4.008;2023-10-31T07:05:54;100613.28;;;11.67;69.72
13974;BME280;7060;43.770;4.008;2023-10-31T07:08:25;100626.75;;;11.75;69.89
13974;BME280;7060;43.770;4.008;2023-10-31T07:10:54;100620.22;;;11.78;70.11
13974;BME280;7060;43.770;4.008;2023-10-31T07:13:25;100621.59;;;11.82;70.26
13974;BME280;7060;43.770;4.008;2023-10-31T07:15:54;100631.34;;;11.91;69.63
13974;BME280;7060;43.770;4.008;2023-10-31T07:18:23;100628.66;;;12.09;68.87
13974;BME280;7060;43.770;4.008;2023-10-31T07:20:51;100633.19;;;12.34;68.27
13974;BME280;7060;43.770;4.008;2023-10-31T07:23:20;100641.72;;;12.72;67.61
13974;BME280;7060;43.770;4.008;2023-10-31T07:25:51;100650.25;;;13.17;66.41
13974;BME280;7060;43.770;4.008;2023-10-31T07:28:20;100652.16;;;13.57;65.07
13974;BME280;7060;43.770;4.008;2023-10-31T07:30:48;100647.97;;;13.96;63.38
13974;BME280;7060;43.770;4.008;2023-10-31T07:33:17;100648.22;;;14.33;61.91
13974;BME280;7060;43.770;4.008;2023-10-31T07:35:46;100655.03;;;14.68;61.08
13974;BME280;7060;43.770;4.008;2023-10-31T07:38:15;100643.94;;;15.02;59.95
13974;BME280;7060;43.770;4.008;2023-10-31T07:40:44;100640.19;;;15.34;59.99
13974;BME280;7060;43.770;4.008;2023-10-31T07:43:15;100653.66;;;15.65;59.26
13974;BME280;7060;43.770;4.008;2023-10-31T07:45:44;100654.28;;;15.90;57.82
13974;BME280;7060;43.770;4.008;2023-10-31T07:48:13;100665.19;;;16.11;56.56
13974;BME280;7060;43.770;4.008;2023-10-31T07:50:42;100672.94;;;16.29;55.50
13974;BME280;7060;43.770;4.008;2023-10-31T07:53:11;100681.59;;;16.39;55.17
13974;BME280;7060;43.770;4.008;2023-10-31T07:55:40;100675.66;;;16.44;53.58
13974;BME280;7060;43.770;4.008;2023-10-31T07:58:09;100683.28;;;16.40;53.60
13974;BME280;7060;43.770;4.008;2023-10-31T08:00:39;100682.69;;;16.30;53.20
13974;BME280;7060;43.770;4.008;2023-10-31T08:03:08;100680.66;;;16.17;53.29
13974;BME280;7060;43.770;4.008;2023-10-31T08:05:37;100663.50;;;15.96;52.44
13974;BME280;7060;43.770;4.008;2023-10-31T08:08:06;100666.75;;;15.91;53.21
13974;BME280;7060;43.770;4.008;2023-10-31T08:10:35;100660.31;;;15.92;53.40
13974;BME280;7060;43.770;4.008;2023-10-31T08:13:04;100664.97;;;15.98;53.99
13974;BME280;7060;43.770;4.008;2023-10-31T08:15:33;100664.88;;;15.91;53.15
13974;BME280;7060;43.770;4.008;2023-10-31T08:18:04;100667.66;;;15.98;53.32
13974;BME280;7060;43.770;4.008;2023-10-31T08:20:33;100673.81;;;15.92;53.14
13974;BME280;7060;43.770;4.008;2023-10-31T08:23:02;100668.41;;;15.92;53.36
13974;BME280;7060;43.770;4.008;2023-10-31T08:25:31;100668.06;;;15.95;53.61
13974;BME280;7060;43.770;4.008;2023-10-31T08:28:00;100680.13;;;15.99;54.16
13974;BME280;7060;43.770;4.008;2023-10-31T08:30:29;100680.16;;;16.14;53.84
13974;BME280;7060;43.770;4.008;2023-10-31T08:32:57;100685.28;;;16.23;53.90
13974;BME280;7060;43.770;4.008;2023-10-31T08:35:28;100682.22;;;16.26;53.59
13974;BME280;7060;43.770;4.008;2023-10-31T08:37:57;100685.88;;;16.34;53.88
13974;BME280;7060;43.770;4.008;2023-10-31T08:40:27;100689.09;;;16.29;53.23
13974;BME280;7060;43.770;4.008;2023-10-31T08:42:56;100696.56;;;16.27;53.01
13974;BME280;7060;43.770;4.008;2023-10-31T08:45:24;100697.75;;;16.24;52.67
13974;BME280;7060;43.770;4.008;2023-10-31T08:47:53;100716.28;;;16.27;53.42
13974;BME280;7060;43.770;4.008;2023-10-31T08:50:22;100721.47;;;16.29;53.58
13974;BME280;7060;43.770;4.008;2023-10-31T08:52:53;100728.38;;;16.32;53.71
13974;BME280;7060;43.770;4.008;2023-10-31T08:55:22;100711.34;;;16.31;54.09
13974;BME280;7060;43.770;4.008;2023-10-31T08:57:51;100724.66;;;16.33;54.47
13974;BME280;7060;43.770;4.008;2023-10-31T09:00:20;100721.59;;;16.36;54.15
13974;BME280;7060;43.770;4.008;2023-10-31T09:02:50;100717.88;;;16.37;53.92
13974;BME280;7060;43.770;4.008;2023-10-31T09:05:19;100722.78;;;16.33;53.64
13974;BME280;7060;43.770;4.008;2023-10-31T09:07:48;100725.03;;;16.30;53.94
13974;BME280;7060;43.770;4.008;2023-10-31T09:10:18;100732.94;;;16.31;53.61
13974;BME280;7060;43.770;4.008;2023-10-31T09:12:47;100734.44;;;16.34;53.52
13974;BME280;7060;43.770;4.008;2023-10-31T09:15:16;100736.94;;;16.35;53.39
13974;BME280;7060;43.770;4.008;2023-10-31T09:17:46;100749.72;;;16.41;53.30
13974;BME280;7060;43.770;4.008;2023-10-31T09:20:17;100748.81;;;16.49;53.43
13974;BME280;7060;43.770;4.008;2023-10-31T09:22:46;100745.53;;;16.53;53.41
13974;BME280;7060;43.770;4.008;2023-10-31T09:25:17;100742.00;;;16.53;52.82
13974;BME280;7060;43.770;4.008;2023-10-31T09:27:46;100744.31;;;16.56;53.29
13974;BME280;7060;43.770;4.008;2023-10-31T09:30:15;100738.00;;;16.64;54.22
13974;BME280;7060;43.770;4.008;2023-10-31T09:32:46;100738.63;;;16.74;53.74
13974;BME280;7060;43.770;4.008;2023-10-31T09:35:15;100744.94;;;16.66;53.22
13974;BME280;7060;43.770;4.008;2023-10-31T09:37:44;100739.81;;;16.71;53.66
13974;BME280;7060;43.770;4.008;2023-10-31T09:40:17;100748.38;;;16.75;52.72
13974;BME280;7060;43.770;4.008;2023-10-31T09:42:47;100741.13;;;16.75;52.26
13974;BME280;7060;43.770;4.008;2023-10-31T09:45:17;100738.03;;;16.78;52.91
13974;BME280;7060;43.770;4.008;2023-10-31T09:47:46;100738.97;;;16.85;52.93
13974;BME280;7060;43.770;4.008;2023-10-31T09:50:15;100736.94;;;16.87;53.04
13974;BME280;7060;43.770;4.008;2023-10-31T09:52:44;100746.34;;;16.91;52.71
13974;BME280;7060;43.770;4.008;2023-10-31T09:55:14;100751.19;;;16.96;52.79
13974;BME280;7060;43.770;4.008;2023-10-31T09:57:44;100752.47;;;17.00;52.30
13974;BME280;7060;43.770;4.008;2023-10-31T10:00:14;100754.81;;;17.03;52.20
13974;BME280;7060;43.770;4.008;2023-10-31T10:02:43;100764.13;;;17.01;50.98
13974;BME280;7060;43.770;4.008;2023-10-31T10:05:14;100766.28;;;17.05;51.03
13974;BME280;7060;43.770;4.008;2023-10-31T10:07:45;100757.50;;;17.03;51.04
13974;BME280;7060;43.770;4.008;2023-10-31T10:10:14;100761.69;;;17.06;50.49
13974;BME280;7060;43.770;4.008;2023-10-31T10:12:44;100774.16;;;17.07;51.05
13974;BME280;7060;43.770;4.008;2023-10-31T10:15:13;100758.34;;;17.04;50.89
13974;BME280;7060;43.770;4.008;2023-10-31T10:17:48;100780.13;;;17.17;50.67
13974;BME280;7060;43.770;4.008;2023-10-31T10:20:18;100770.44;;;17.22;51.15
13974;BME280;7060;43.770;4.008;2023-10-31T10:22:47;100767.00;;;17.29;50.50
13974;BME280;7060;43.770;4.008;2023-10-31T10:25:17;100768.47;;;17.31;50.26
13974;BME280;7060;43.770;4.008;2023-10-31T10:27:48;100766.03;;;17.36;50.20
13974;BME280;7060;43.770;4.008;2023-10-31T10:30:17;100766.09;;;17.43;50.65
13974;BME280;7060;43.770;4.008;2023-10-31T10:32:49;100775.13;;;17.50;50.29
13974;BME280;7060;43.770;4.008;2023-10-31T10:35:18;100770.38;;;17.52;50.45
13974;BME280;7060;43.770;4.008;2023-10-31T10:37:48;100775.22;;;17.56;50.05
13974;BME280;7060;43.770;4.008;2023-10-31T10:40:20;100786.13;;;17.63;50.50
13974;BME280;7060;43.770;4.008;2023-10-31T10:42:51;100796.19;;;17.69;49.64
13974;BME280;7060;43.770;4.008;2023-10-31T10:45:27;100798.31;;;17.74;49.29
13974;BME280;7060;43.770;4.008;2023-10-31T10:47:58;100795.13;;;17.85;49.34
13974;BME280;7060;43.770;4.008;2023-10-31T10:50:32;100796.84;;;17.92;48.69
13974;BME280;7060;43.770;4.008;2023-10-31T10:53:09;100793.56;;;17.97;48.80
13974;BME280;7060;43.770;4.008;2023-10-31T10:55:43;100787.22;;;18.05;48.91
13974;BME280;7060;43.770;4.008;2023-10-31T10:58:20;100787.47;;;18.10;48.65
13974;BME280;7060;43.770;4.008;2023-10-31T11:00:51;100789.59;;;18.14;48.82
13974;BME280;7060;43.770;4.008;2023-10-31T11:03:22;100787.13;;;18.19;48.73
13974;BME280;7060;43.770;4.008;2023-10-31T11:05:52;100781.91;;;18.18;48.50
13974;BME280;7060;43.770;4.008;2023-10-31T11:08:23;100774.03;;;18.23;48.10
13974;BME280;7060;43.770;4.008;2023-10-31T11:10:53;100781.13;;;18.24;48.59
13974;BME280;7060;43.770;4.008;2023-10-31T11:13:27;100781.84;;;18.33;48.98
13974;BME280;7060;43.770;4.008;2023-10-31T11:15:59;100781.47;;;18.36;47.76
13974;BME280;7060;43.770;4.008;2023-10-31T11:18:30;100780.44;;;18.37;47.93
13974;BME280;7060;43.770;4.008;2023-10-31T11:20:59;100778.16;;;18.40;47.16
13974;BME280;7060;43.770;4.008;2023-10-31T11:23:28;100779.00;;;18.41;47.45
13974;BME280;7060;43.770;4.008;2023-10-31T11:25:57;100778.59;;;18.44;47.23
13974;BME280;7060;43.770;4.008;2023-10-31T11:28:27;100774.09;;;18.51;47.03
13974;BME280;7060;43.770;4.008;2023-10-31T11:30:56;100776.63;;;18.52;47.21
13974;BME280;7060;43.770;4.008;2023-10-31T11:33:28;100773.97;;;18.59;47.52
13974;BME280;7060;43.770;4.008;2023-10-31T11:36:04;100780.91;;;18.68;47.39
13974;BME280;7060;43.770;4.008;2023-10-31T11:38:36;100779.63;;;18.64;46.94
13974;BME280;7060;43.770;4.008;2023-10-31T11:41:06;100770.69;;;18.70;47.74
13974;BME280;7060;43.770;4.008;2023-10-31T11:43:52;100772.66;;;18.83;47.57
13974;BME280;7060;43.770;4.008;2023-10-31T11:46:23;100765.13;;;18.78;47.32
13974;BME280;7060;43.770;4.008;2023-10-31T11:48:54;100770.59;;;18.85;46.28
13974;BME280;7060;43.770;4.008;2023-10-31T11:51:25;100772.66;;;18.83;46.21
13974;BME280;7060;43.770;4.008;2023-10-31T11:53:54;100767.69;;;18.86;45.79
13974;BME280;7060;43.770;4.008;2023-10-31T11:56:23;100778.13;;;18.89;46.07
13974;BME280;7060;43.770;4.008;2023-10-31T11:58:58;100770.88;;;18.97;45.68
13974;BME280;7060;43.770;4.008;2023-10-31T12:01:27;100772.13;;;18.94;45.83
13974;BME280;7060;43.770;4.008;2023-10-31T12:03:56;100774.66;;;19.02;45.91
13974;BME280;7060;43.770;4.008;2023-10-31T12:06:26;100772.78;;;19.03;46.12
13974;BME280;7060;43.770;4.008;2023-10-31T12:08:59;100772.56;;;19.04;45.74
13974;BME280;7060;43.770;4.008;2023-10-31T12:11:29;100779.00;;;18.97;46.10
13974;BME280;7060;43.770;4.008;2023-10-31T12:14:01;100772.53;;;18.98;45.64
13974;BME280;7060;43.770;4.008;2023-10-31T12:16:33;100775.88;;;18.93;45.19
13974;BME280;7060;43.770;4.008;2023-10-31T12:19:04;100767.09;;;18.91;45.45
13974;BME280;7060;43.770;4.008;2023-10-31T12:21:37;100765.41;;;18.90;45.78
13974;BME280;7060;43.770;4.008;2023-10-31T12:24:08;100773.09;;;18.86;45.97
13974;BME280;7060;43.770;4.008;2023-10-31T12:26:37;100777.94;;;18.91;46.31
13974;BME280;7060;43.770;4.008;2023-10-31T12:29:13;100775.25;;;18.98;45.84
13974;BME280;7060;43.770;4.008;2023-10-31T12:31:44;100791.28;;;18.99;46.06
13974;BME280;7060;43.770;4.008;2023-10-31T12:34:15;100780.91;;;19.03;46.06
13974;BME280;7060;43.770;4.008;2023-10-31T12:36:46;100782.81;;;19.09;45.65
13974;BME280;7060;43.770;4.008;2023-10-31T12:39:17;100791.38;;;19.12;45.46
13974;BME280;7060;43.770;4.008;2023-10-31T12:41:47;100779.72;;;19.12;45.10
13974;BME280;7060;43.770;4.008;2023-10-31T12:44:23;100786.41;;;19.16;45.30
13974;BME280;7060;43.770;4.008;2023-10-31T12:46:52;100787.63;;;19.13;44.84
13974;BME280;7060;43.770;4.008;2023-10-31T12:49:21;100783.25;;;19.12;44.86
13974;BME280;7060;43.770;4.008;2023-10-31T12:51:57;100784.06;;;19.06;44.57
13974;BME280;7060;43.770;4.008;2023-10-31T12:54:31;100756.84;;;18.86;44.54
13974;BME280;7060;43.770;4.008;2023-10-31T12:57:01;100782.25;;;18.85;45.23
13974;BME280;7060;43.770;4.008;2023-10-31T12:59:34;100787.84;;;18.77;45.07
13974;BME280;7060;43.770;4.008;2023-10-31T13:02:06;100785.50;;;18.74;44.41
13974;BME280;7060;43.770;4.008;2023-10-31T13:04:36;100778.41;;;18.73;43.29
13974;BME280;7060;43.770;4.008;2023-10-31T13:07:06;100778.41;;;18.73;43.29
13974;BME280;7060;43.770;4.008;2023-10-31T13:09:37;100763.56;;;18.63;43.48
13974;BME280;7060;43.770;4.008;2023-10-31T13:12:09;100788.66;;;18.78;43.00
13974;BME280;7060;43.770;4.008;2023-10-31T13:14:40;100789.31;;;18.80;42.73
13974;BME280;7060;43.770;4.008;2023-10-31T13:17:09;100793.88;;;18.79;42.04